sensor_id;sensor_type;location;lat;lon;timestamp;temperature;humidity
10459;DHT22;5277;48.722;8.736;2024-02-26T00:00:27;5.00;99.90
10459;DHT22;5277;48.722;8.736;2024-02-26T00:02:54;5.00;99.90
10459;DHT22;5277;48.722;8.736;2024-02-26T00:05:20;5.00;99.90
10459;DHT22;5277;48.722;8.736;2024-02-26T00:07:45;5.00;99.90
10459;DHT22;5277;48.722;8.736;2024-02-26T00:10:13;5.00;99.90
10459;DHT22;5277;48.722;8.736;2024-02-26T00:12:38;5.10;99.90
10459;DHT22;5277;48.722;8.736;2024-02-26T00:15:05;5.10;99.90
10459;DHT22;5277;48.722;8.736;2024-02-26T00:17:31;5.10;99.90
10459;DHT22;5277;48.722;8.736;2024-02-26T00:19:57;5.10;99.90
10459;DHT22;5277;48.722;8.736;2024-02-26T00:22:22;5.10;99.90
10459;DHT22;5277;48.722;8.736;2024-02-26T00:24:48;5.20;99.90
10459;DHT22;5277;48.722;8.736;2024-02-26T00:27:14;5.10;99.90
10459;DHT22;5277;48.722;8.736;2024-02-26T00:29:39;5.20;99.90
10459;DHT22;5277;48.722;8.736;2024-02-26T00:32:05;5.20;99.90
10459;DHT22;5277;48.722;8.736;2024-02-26T00:34:31;5.20;99.90
10459;DHT22;5277;48.722;8.736;2024-02-26T00:36:57;5.20;99.90
10459;DHT22;5277;48.722;8.736;2024-02-26T00:39:22;5.20;99.90
10459;DHT22;5277;48.722;8.736;2024-02-26T00:41:48;5.20;99.90
10459;DHT22;5277;48.722;8.736;2024-02-26T00:44:13;5.20;99.90
10459;DHT22;5277;48.722;8.736;2024-02-26T00:46:39;5.30;99.90
10459;DHT22;5277;48.722;8.736;2024-02-26T00:49:04;5.20;99.90
10459;DHT22;5277;48.722;8.736;2024-02-26T00:51:30;5.30;99.90
10459;DHT22;5277;48.722;8.736;2024-02-26T00:53:56;5.30;99.90
10459;DHT22;5277;48.722;8.736;2024-02-26T00:56:22;5.30;99.90
10459;DHT22;5277;48.722;8.736;2024-02-26T00:58:47;5.30;99.90
10459;DHT22;5277;48.722;8.736;2024-02-26T01:01:13;5.30;99.90
10459;DHT22;5277;48.722;8.736;2024-02-26T01:03:39;5.30;99.90
10459;DHT22;5277;48.722;8.736;2024-02-26T01:06:04;5.30;99.90
10459;DHT22;5277;48.722;8.736;2024-02-26T01:08:30;5.40;99.90
10459;DHT22;5277;48.722;8.736;2024-02-26T01:10:57;5.30;99.90
10459;DHT22;5277;48.722;8.736;2024-02-26T01:13:22;5.30;99.90
10459;DHT22;5277;48.722;8.736;2024-02-26T01:15:48;5.30;99.90
10459;DHT22;5277;48.722;8.736;2024-02-26T01:18:14;5.40;99.90
10459;DHT22;5277;48.722;8.736;2024-02-26T01:20:39;5.40;99.90
10459;DHT22;5277;48.722;8.736;2024-02-26T01:23:05;5.40;99.90
10459;DHT22;5277;48.722;8.736;2024-02-26T01:25:31;5.40;99.90
10459;DHT22;5277;48.722;8.736;2024-02-26T01:27:56;5.30;99.90
10459;DHT22;5277;48.722;8.736;2024-02-26T01:30:22;5.30;99.90
10459;DHT22;5277;48.722;8.736;2024-02-26T01:32:48;5.30;99.90
10459;DHT22;5277;48.722;8.736;2024-02-26T01:35:13;5.40;99.90
10459;DHT22;5277;48.722;8.736;2024-02-26T01:37:39;5.40;99.90
10459;DHT22;5277;48.722;8.736;2024-02-26T01:40:05;5.50;99.90
10459;DHT22;5277;48.722;8.736;2024-02-26T01:42:32;5.40;99.90
10459;DHT22;5277;48.722;8.736;2024-02-26T01:44:58;5.40;99.90
10459;DHT22;5277;48.722;8.736;2024-02-26T01:47:24;5.40;99.90
10459;DHT22;5277;48.722;8.736;2024-02-26T01:49:51;5.40;99.90
10459;DHT22;5277;48.722;8.736;2024-02-26T01:52:17;5.50;99.90
10459;DHT22;5277;48.722;8.736;2024-02-26T01:57:08;5.40;99.90
10459;DHT22;5277;48.722;8.736;2024-02-26T01:59:34;5.40;99.90
10459;DHT22;5277;48.722;8.736;2024-02-26T02:02:02;5.40;99.90
10459;DHT22;5277;48.722;8.736;2024-02-26T02:04:29;5.50;99.90
10459;DHT22;5277;48.722;8.736;2024-02-26T02:06:55;5.50;99.90
10459;DHT22;5277;48.722;8.736;2024-02-26T02:09:22;5.50;99.90
10459;DHT22;5277;48.722;8.736;2024-02-26T02:11:48;5.50;99.90
10459;DHT22;5277;48.722;8.736;2024-02-26T02:14:14;5.50;99.90
10459;DHT22;5277;48.722;8.736;2024-02-26T02:16:40;5.60;99.90
10459;DHT22;5277;48.722;8.736;2024-02-26T02:19:06;5.60;99.90
10459;DHT22;5277;48.722;8.736;2024-02-26T02:21:31;5.60;99.90
10459;DHT22;5277;48.722;8.736;2024-02-26T02:23:57;5.60;99.90
10459;DHT22;5277;48.722;8.736;2024-02-26T02:26:22;5.60;99.90
10459;DHT22;5277;48.722;8.736;2024-02-26T02:28:48;5.60;99.90
10459;DHT22;5277;48.722;8.736;2024-02-26T02:31:15;5.60;99.90
10459;DHT22;5277;48.722;8.736;2024-02-26T02:33:41;5.60;99.90
10459;DHT22;5277;48.722;8.736;2024-02-26T02:36:07;5.60;99.90
10459;DHT22;5277;48.722;8.736;2024-02-26T02:38:36;5.60;99.90
10459;DHT22;5277;48.722;8.736;2024-02-26T02:41:02;5.60;99.90
10459;DHT22;5277;48.722;8.736;2024-02-26T02:43:27;5.60;99.90
10459;DHT22;5277;48.722;8.736;2024-02-26T02:45:53;5.60;99.90
10459;DHT22;5277;48.722;8.736;2024-02-26T02:48:18;5.60;99.90
10459;DHT22;5277;48.722;8.736;2024-02-26T02:50:45;5.60;99.90
10459;DHT22;5277;48.722;8.736;2024-02-26T02:53:11;5.70;99.90
10459;DHT22;5277;48.722;8.736;2024-02-26T02:55:36;5.60;99.90
10459;DHT22;5277;48.722;8.736;2024-02-26T02:58:02;5.70;99.90
10459;DHT22;5277;48.722;8.736;2024-02-26T03:00:28;5.60;99.90
10459;DHT22;5277;48.722;8.736;2024-02-26T03:02:53;5.70;99.90
10459;DHT22;5277;48.722;8.736;2024-02-26T03:05:19;5.70;99.90
10459;DHT22;5277;48.722;8.736;2024-02-26T03:07:44;5.70;99.90
10459;DHT22;5277;48.722;8.736;2024-02-26T03:10:10;5.70;99.90
10459;DHT22;5277;48.722;8.736;2024-02-26T03:12:35;5.60;99.90
10459;DHT22;5277;48.722;8.736;2024-02-26T03:15:01;5.70;99.90
10459;DHT22;5277;48.722;8.736;2024-02-26T03:17:30;5.70;99.90
10459;DHT22;5277;48.722;8.736;2024-02-26T03:19:56;5.70;99.90
10459;DHT22;5277;48.722;8.736;2024-02-26T03:22:21;5.70;99.90
10459;DHT22;5277;48.722;8.736;2024-02-26T03:24:48;5.70;99.90
10459;DHT22;5277;48.722;8.736;2024-02-26T03:27:13;5.70;99.90
10459;DHT22;5277;48.722;8.736;2024-02-26T03:29:39;5.70;99.90
10459;DHT22;5277;48.722;8.736;2024-02-26T03:32:05;5.70;99.90
10459;DHT22;5277;48.722;8.736;2024-02-26T03:34:32;5.70;99.90
10459;DHT22;5277;48.722;8.736;2024-02-26T03:37:00;5.70;99.90
10459;DHT22;5277;48.722;8.736;2024-02-26T03:39:25;5.70;99.90
10459;DHT22;5277;48.722;8.736;2024-02-26T03:41:51;5.70;99.90
10459;DHT22;5277;48.722;8.736;2024-02-26T03:44:16;5.70;99.90
10459;DHT22;5277;48.722;8.736;2024-02-26T03:46:42;5.70;99.90
10459;DHT22;5277;48.722;8.736;2024-02-26T03:49:08;5.70;99.90
10459;DHT22;5277;48.722;8.736;2024-02-26T03:51:34;5.70;99.90
10459;DHT22;5277;48.722;8.736;2024-02-26T03:54:00;5.70;99.90
10459;DHT22;5277;48.722;8.736;2024-02-26T03:56:26;5.70;99.90
10459;DHT22;5277;48.722;8.736;2024-02-26T03:58:52;5.70;99.90
10459;DHT22;5277;48.722;8.736;2024-02-26T04:01:18;5.70;99.90
10459;DHT22;5277;48.722;8.736;2024-02-26T04:03:44;5.70;99.90
10459;DHT22;5277;48.722;8.736;2024-02-26T04:06:10;5.70;99.90
10459;DHT22;5277;48.722;8.736;2024-02-26T04:08:36;5.70;99.90
10459;DHT22;5277;48.722;8.736;2024-02-26T04:11:03;5.70;99.90
10459;DHT22;5277;48.722;8.736;2024-02-26T04:13:33;5.60;99.90
10459;DHT22;5277;48.722;8.736;2024-02-26T04:15:59;5.60;99.90
10459;DHT22;5277;48.722;8.736;2024-02-26T04:18:26;5.70;99.90
10459;DHT22;5277;48.722;8.736;2024-02-26T04:20:52;5.70;99.90
10459;DHT22;5277;48.722;8.736;2024-02-26T04:23:18;5.70;99.90
10459;DHT22;5277;48.722;8.736;2024-02-26T04:25:43;5.70;99.90
10459;DHT22;5277;48.722;8.736;2024-02-26T04:28:09;5.70;99.90
10459;DHT22;5277;48.722;8.736;2024-02-26T04:30:34;5.70;99.90
10459;DHT22;5277;48.722;8.736;2024-02-26T04:33:00;5.70;99.90
10459;DHT22;5277;48.722;8.736;2024-02-26T04:35:25;5.60;99.90
10459;DHT22;5277;48.722;8.736;2024-02-26T04:37:51;5.60;99.90
10459;DHT22;5277;48.722;8.736;2024-02-26T04:40:16;5.70;99.90
10459;DHT22;5277;48.722;8.736;2024-02-26T04:42:42;5.60;99.90
10459;DHT22;5277;48.722;8.736;2024-02-26T04:45:08;5.60;99.90
10459;DHT22;5277;48.722;8.736;2024-02-26T04:47:34;5.60;99.90
10459;DHT22;5277;48.722;8.736;2024-02-26T04:49:59;5.60;99.90
10459;DHT22;5277;48.722;8.736;2024-02-26T04:52:25;5.60;99.90
10459;DHT22;5277;48.722;8.736;2024-02-26T04:54:51;5.50;99.90
10459;DHT22;5277;48.722;8.736;2024-02-26T04:57:17;5.60;99.90
10459;DHT22;5277;48.722;8.736;2024-02-26T04:59:44;5.60;99.90
10459;DHT22;5277;48.722;8.736;2024-02-26T05:02:11;5.60;99.90
10459;DHT22;5277;48.722;8.736;2024-02-26T05:04:37;5.60;99.90
10459;DHT22;5277;48.722;8.736;2024-02-26T05:07:03;5.60;99.90
10459;DHT22;5277;48.722;8.736;2024-02-26T05:09:29;5.60;99.90
10459;DHT22;5277;48.722;8.736;2024-02-26T05:11:54;5.60;99.90
10459;DHT22;5277;48.722;8.736;2024-02-26T05:14:20;5.60;99.90
10459;DHT22;5277;48.722;8.736;2024-02-26T05:16:45;5.70;99.90
10459;DHT22;5277;48.722;8.736;2024-02-26T05:19:11;5.70;99.90
10459;DHT22;5277;48.722;8.736;2024-02-26T05:21:37;5.70;99.90
10459;DHT22;5277;48.722;8.736;2024-02-26T05:24:03;5.70;99.90
10459;DHT22;5277;48.722;8.736;2024-02-26T05:26:28;5.70;99.90
10459;DHT22;5277;48.722;8.736;2024-02-26T05:28:54;5.70;99.90
10459;DHT22;5277;48.722;8.736;2024-02-26T05:31:25;5.70;99.90
10459;DHT22;5277;48.722;8.736;2024-02-26T05:33:50;5.70;99.90
10459;DHT22;5277;48.722;8.736;2024-02-26T05:36:21;5.70;99.90
10459;DHT22;5277;48.722;8.736;2024-02-26T05:38:48;5.70;99.90
10459;DHT22;5277;48.722;8.736;2024-02-26T05:41:18;5.70;99.90
10459;DHT22;5277;48.722;8.736;2024-02-26T05:43:49;5.60;99.90
10459;DHT22;5277;48.722;8.736;2024-02-26T05:46:19;5.60;99.90
10459;DHT22;5277;48.722;8.736;2024-02-26T05:48:50;5.60;99.90
10459;DHT22;5277;48.722;8.736;2024-02-26T05:51:15;5.60;99.90
10459;DHT22;5277;48.722;8.736;2024-02-26T05:53:41;5.60;99.90
10459;DHT22;5277;48.722;8.736;2024-02-26T05:56:07;5.60;99.90
10459;DHT22;5277;48.722;8.736;2024-02-26T05:58:33;5.60;99.90
10459;DHT22;5277;48.722;8.736;2024-02-26T06:00:58;5.60;99.90
10459;DHT22;5277;48.722;8.736;2024-02-26T06:03:25;5.60;99.90
10459;DHT22;5277;48.722;8.736;2024-02-26T06:05:51;5.60;99.90
10459;DHT22;5277;48.722;8.736;2024-02-26T06:08:17;5.60;99.90
10459;DHT22;5277;48.722;8.736;2024-02-26T06:10:42;5.60;99.90
10459;DHT22;5277;48.722;8.736;2024-02-26T06:13:08;5.60;99.90
10459;DHT22;5277;48.722;8.736;2024-02-26T06:15:33;5.60;99.90
10459;DHT22;5277;48.722;8.736;2024-02-26T06:17:59;5.60;99.90
10459;DHT22;5277;48.722;8.736;2024-02-26T06:20:24;5.60;99.90
10459;DHT22;5277;48.722;8.736;2024-02-26T06:22:51;5.60;99.90
10459;DHT22;5277;48.722;8.736;2024-02-26T06:25:16;5.60;99.90
10459;DHT22;5277;48.722;8.736;2024-02-26T06:27:42;5.60;99.90
10459;DHT22;5277;48.722;8.736;2024-02-26T06:30:08;5.60;99.90
10459;DHT22;5277;48.722;8.736;2024-02-26T06:32:36;5.60;99.90
10459;DHT22;5277;48.722;8.736;2024-02-26T06:35:02;5.70;99.90
10459;DHT22;5277;48.722;8.736;2024-02-26T06:37:32;5.70;99.90
10459;DHT22;5277;48.722;8.736;2024-02-26T06:39:59;5.70;99.90
10459;DHT22;5277;48.722;8.736;2024-02-26T06:42:25;5.70;99.90
10459;DHT22;5277;48.722;8.736;2024-02-26T06:44:50;5.70;99.90
10459;DHT22;5277;48.722;8.736;2024-02-26T06:47:16;5.70;99.90
10459;DHT22;5277;48.722;8.736;2024-02-26T06:49:41;5.80;99.90
10459;DHT22;5277;48.722;8.736;2024-02-26T06:52:07;5.80;99.90
10459;DHT22;5277;48.722;8.736;2024-02-26T06:54:33;5.80;99.90
10459;DHT22;5277;48.722;8.736;2024-02-26T06:56:58;5.80;99.90
10459;DHT22;5277;48.722;8.736;2024-02-26T06:59:24;5.90;99.90
10459;DHT22;5277;48.722;8.736;2024-02-26T07:01:50;5.90;99.90
10459;DHT22;5277;48.722;8.736;2024-02-26T07:04:15;6.00;99.90
10459;DHT22;5277;48.722;8.736;2024-02-26T07:06:41;6.00;99.90
10459;DHT22;5277;48.722;8.736;2024-02-26T07:09:08;6.10;99.90
10459;DHT22;5277;48.722;8.736;2024-02-26T07:11:33;6.10;99.90
10459;DHT22;5277;48.722;8.736;2024-02-26T07:13:59;6.10;99.90
10459;DHT22;5277;48.722;8.736;2024-02-26T07:16:26;6.10;99.90
10459;DHT22;5277;48.722;8.736;2024-02-26T07:18:52;6.20;99.90
10459;DHT22;5277;48.722;8.736;2024-02-26T07:21:18;6.20;99.90
10459;DHT22;5277;48.722;8.736;2024-02-26T07:23:43;6.30;99.90
10459;DHT22;5277;48.722;8.736;2024-02-26T07:26:09;6.30;99.90
10459;DHT22;5277;48.722;8.736;2024-02-26T07:28:37;6.40;99.90
10459;DHT22;5277;48.722;8.736;2024-02-26T07:31:02;6.40;99.90
10459;DHT22;5277;48.722;8.736;2024-02-26T07:33:28;6.50;99.90
10459;DHT22;5277;48.722;8.736;2024-02-26T07:35:54;6.50;99.90
10459;DHT22;5277;48.722;8.736;2024-02-26T07:38:19;6.50;99.90
10459;DHT22;5277;48.722;8.736;2024-02-26T07:40:45;6.60;99.90
10459;DHT22;5277;48.722;8.736;2024-02-26T07:43:11;6.60;99.90
10459;DHT22;5277;48.722;8.736;2024-02-26T07:45:36;6.60;99.90
10459;DHT22;5277;48.722;8.736;2024-02-26T07:48:02;6.60;99.90
10459;DHT22;5277;48.722;8.736;2024-02-26T07:50:28;6.60;99.90
10459;DHT22;5277;48.722;8.736;2024-02-26T07:52:53;6.60;99.90
10459;DHT22;5277;48.722;8.736;2024-02-26T07:55:19;6.70;99.90
10459;DHT22;5277;48.722;8.736;2024-02-26T07:57:45;6.70;99.90
10459;DHT22;5277;48.722;8.736;2024-02-26T08:00:11;6.70;99.90
10459;DHT22;5277;48.722;8.736;2024-02-26T08:02:37;6.80;99.90
10459;DHT22;5277;48.722;8.736;2024-02-26T08:05:02;6.80;99.90
10459;DHT22;5277;48.722;8.736;2024-02-26T08:07:28;6.90;99.90
10459;DHT22;5277;48.722;8.736;2024-02-26T08:09:54;6.90;99.90
10459;DHT22;5277;48.722;8.736;2024-02-26T08:12:20;6.90;99.90
10459;DHT22;5277;48.722;8.736;2024-02-26T08:14:45;7.00;99.90
10459;DHT22;5277;48.722;8.736;2024-02-26T08:17:11;7.10;99.90
10459;DHT22;5277;48.722;8.736;2024-02-26T08:19:37;7.10;99.90
10459;DHT22;5277;48.722;8.736;2024-02-26T08:22:02;7.10;99.90
10459;DHT22;5277;48.722;8.736;2024-02-26T08:24:28;7.20;99.90
10459;DHT22;5277;48.722;8.736;2024-02-26T08:26:54;7.30;99.90
10459;DHT22;5277;48.722;8.736;2024-02-26T08:29:19;7.40;99.90
10459;DHT22;5277;48.722;8.736;2024-02-26T08:31:45;7.40;99.90
10459;DHT22;5277;48.722;8.736;2024-02-26T08:34:11;7.50;99.90
10459;DHT22;5277;48.722;8.736;2024-02-26T08:36:36;7.50;99.90
10459;DHT22;5277;48.722;8.736;2024-02-26T08:39:02;7.60;99.90
10459;DHT22;5277;48.722;8.736;2024-02-26T08:41:28;7.60;99.90
10459;DHT22;5277;48.722;8.736;2024-02-26T08:43:53;7.70;99.90
10459;DHT22;5277;48.722;8.736;2024-02-26T08:46:20;7.70;99.90
10459;DHT22;5277;48.722;8.736;2024-02-26T08:48:45;7.70;99.90
10459;DHT22;5277;48.722;8.736;2024-02-26T08:51:11;7.80;99.90
10459;DHT22;5277;48.722;8.736;2024-02-26T08:53:37;7.80;99.90
10459;DHT22;5277;48.722;8.736;2024-02-26T08:56:02;7.90;99.90
10459;DHT22;5277;48.722;8.736;2024-02-26T08:58:28;8.00;99.90
10459;DHT22;5277;48.722;8.736;2024-02-26T09:00:54;8.00;99.90
10459;DHT22;5277;48.722;8.736;2024-02-26T09:03:20;8.10;99.90
10459;DHT22;5277;48.722;8.736;2024-02-26T09:05:46;8.10;99.90
10459;DHT22;5277;48.722;8.736;2024-02-26T09:08:11;8.20;99.90
10459;DHT22;5277;48.722;8.736;2024-02-26T09:10:38;8.30;99.90
10459;DHT22;5277;48.722;8.736;2024-02-26T09:13:04;8.50;99.90
10459;DHT22;5277;48.722;8.736;2024-02-26T09:15:30;8.60;99.90
10459;DHT22;5277;48.722;8.736;2024-02-26T09:17:55;8.70;99.90
10459;DHT22;5277;48.722;8.736;2024-02-26T09:20:21;8.80;99.90
10459;DHT22;5277;48.722;8.736;2024-02-26T09:22:49;8.90;99.90
10459;DHT22;5277;48.722;8.736;2024-02-26T09:25:15;8.90;99.90
10459;DHT22;5277;48.722;8.736;2024-02-26T09:27:44;8.90;99.90
10459;DHT22;5277;48.722;8.736;2024-02-26T09:30:13;8.90;99.90
10459;DHT22;5277;48.722;8.736;2024-02-26T09:32:39;9.00;99.90
10459;DHT22;5277;48.722;8.736;2024-02-26T09:35:08;9.00;99.90
10459;DHT22;5277;48.722;8.736;2024-02-26T09:37:34;9.00;99.90
10459;DHT22;5277;48.722;8.736;2024-02-26T09:40:00;9.10;99.90
10459;DHT22;5277;48.722;8.736;2024-02-26T09:42:26;9.20;99.90
10459;DHT22;5277;48.722;8.736;2024-02-26T09:44:54;9.30;99.90
10459;DHT22;5277;48.722;8.736;2024-02-26T09:47:26;9.40;99.90
10459;DHT22;5277;48.722;8.736;2024-02-26T09:49:56;9.50;99.90
10459;DHT22;5277;48.722;8.736;2024-02-26T09:52:23;9.60;99.90
10459;DHT22;5277;48.722;8.736;2024-02-26T09:54:49;9.70;99.90
10459;DHT22;5277;48.722;8.736;2024-02-26T09:57:16;9.60;99.90
10459;DHT22;5277;48.722;8.736;2024-02-26T09:59:43;9.60;99.90
10459;DHT22;5277;48.722;8.736;2024-02-26T10:02:12;9.70;99.90
10459;DHT22;5277;48.722;8.736;2024-02-26T10:04:41;9.80;99.90
10459;DHT22;5277;48.722;8.736;2024-02-26T10:07:13;9.80;99.90
10459;DHT22;5277;48.722;8.736;2024-02-26T10:09:39;9.90;99.90
10459;DHT22;5277;48.722;8.736;2024-02-26T10:12:07;9.90;99.90
10459;DHT22;5277;48.722;8.736;2024-02-26T10:14:34;10.00;99.90
10459;DHT22;5277;48.722;8.736;2024-02-26T10:16:59;10.00;99.90
10459;DHT22;5277;48.722;8.736;2024-02-26T10:19:29;10.10;99.90
10459;DHT22;5277;48.722;8.736;2024-02-26T10:22:01;10.20;99.90
10459;DHT22;5277;48.722;8.736;2024-02-26T10:24:29;10.20;99.90
10459;DHT22;5277;48.722;8.736;2024-02-26T10:26:55;10.30;99.90
10459;DHT22;5277;48.722;8.736;2024-02-26T10:29:23;10.30;99.90
10459;DHT22;5277;48.722;8.736;2024-02-26T10:31:50;10.40;99.90
10459;DHT22;5277;48.722;8.736;2024-02-26T10:34:15;10.50;99.90
10459;DHT22;5277;48.722;8.736;2024-02-26T10:36:42;10.70;99.90
10459;DHT22;5277;48.722;8.736;2024-02-26T10:39:07;10.80;99.90
10459;DHT22;5277;48.722;8.736;2024-02-26T10:41:33;10.90;99.90
10459;DHT22;5277;48.722;8.736;2024-02-26T10:43:59;11.10;99.90
10459;DHT22;5277;48.722;8.736;2024-02-26T10:46:26;11.10;99.90
10459;DHT22;5277;48.722;8.736;2024-02-26T10:48:52;11.20;99.90
10459;DHT22;5277;48.722;8.736;2024-02-26T10:51:26;11.30;99.90
10459;DHT22;5277;48.722;8.736;2024-02-26T10:53:56;11.40;99.90
10459;DHT22;5277;48.722;8.736;2024-02-26T10:56:28;11.50;99.90
10459;DHT22;5277;48.722;8.736;2024-02-26T10:58:55;11.60;99.90
10459;DHT22;5277;48.722;8.736;2024-02-26T11:01:21;11.80;99.90
10459;DHT22;5277;48.722;8.736;2024-02-26T11:03:54;11.90;99.90
10459;DHT22;5277;48.722;8.736;2024-02-26T11:06:21;12.00;99.90
10459;DHT22;5277;48.722;8.736;2024-02-26T11:08:50;12.10;99.90
10459;DHT22;5277;48.722;8.736;2024-02-26T11:11:17;12.20;99.90
10459;DHT22;5277;48.722;8.736;2024-02-26T11:13:46;12.20;99.80
10459;DHT22;5277;48.722;8.736;2024-02-26T11:16:18;12.30;99.70
10459;DHT22;5277;48.722;8.736;2024-02-26T11:18:43;12.30;99.40
10459;DHT22;5277;48.722;8.736;2024-02-26T11:21:16;12.40;99.30
10459;DHT22;5277;48.722;8.736;2024-02-26T11:23:48;12.50;99.20
10459;DHT22;5277;48.722;8.736;2024-02-26T11:26:16;12.60;99.50
10459;DHT22;5277;48.722;8.736;2024-02-26T11:28:43;12.70;99.30
10459;DHT22;5277;48.722;8.736;2024-02-26T11:31:10;12.80;98.90
10459;DHT22;5277;48.722;8.736;2024-02-26T11:33:36;13.00;98.80
10459;DHT22;5277;48.722;8.736;2024-02-26T11:36:07;13.00;98.10
10459;DHT22;5277;48.722;8.736;2024-02-26T11:38:33;13.10;97.40
10459;DHT22;5277;48.722;8.736;2024-02-26T11:40:59;13.00;97.50
10459;DHT22;5277;48.722;8.736;2024-02-26T11:43:50;13.00;97.50
10459;DHT22;5277;48.722;8.736;2024-02-26T11:46:41;13.10;97.80
10459;DHT22;5277;48.722;8.736;2024-02-26T11:51:55;13.30;97.50
10459;DHT22;5277;48.722;8.736;2024-02-26T11:54:46;13.30;98.20
10459;DHT22;5277;48.722;8.736;2024-02-26T11:59:51;13.40;98.40
10459;DHT22;5277;48.722;8.736;2024-02-26T12:02:51;13.40;97.50
10459;DHT22;5277;48.722;8.736;2024-02-26T12:05:23;13.40;97.70
10459;DHT22;5277;48.722;8.736;2024-02-26T12:07:54;13.40;98.10
10459;DHT22;5277;48.722;8.736;2024-02-26T12:13:03;13.40;99.00
10459;DHT22;5277;48.722;8.736;2024-02-26T12:15:33;13.40;98.90
10459;DHT22;5277;48.722;8.736;2024-02-26T12:18:02;13.40;98.40
10459;DHT22;5277;48.722;8.736;2024-02-26T12:20:28;13.40;98.70
10459;DHT22;5277;48.722;8.736;2024-02-26T12:22:54;13.30;98.40
10459;DHT22;5277;48.722;8.736;2024-02-26T12:25:25;13.30;98.80
10459;DHT22;5277;48.722;8.736;2024-02-26T12:27:54;13.20;98.80
10459;DHT22;5277;48.722;8.736;2024-02-26T12:30:21;13.20;98.90
10459;DHT22;5277;48.722;8.736;2024-02-26T12:32:48;13.20;99.10
10459;DHT22;5277;48.722;8.736;2024-02-26T12:35:14;13.00;98.80
10459;DHT22;5277;48.722;8.736;2024-02-26T12:37:40;13.10;98.90
10459;DHT22;5277;48.722;8.736;2024-02-26T12:40:08;13.10;99.10
10459;DHT22;5277;48.722;8.736;2024-02-26T12:42:35;13.00;99.20
10459;DHT22;5277;48.722;8.736;2024-02-26T12:45:14;13.10;99.60
10459;DHT22;5277;48.722;8.736;2024-02-26T12:47:42;13.20;99.60
10459;DHT22;5277;48.722;8.736;2024-02-26T12:50:09;13.30;99.40
10459;DHT22;5277;48.722;8.736;2024-02-26T12:52:37;13.30;99.00
10459;DHT22;5277;48.722;8.736;2024-02-26T12:55:05;13.40;98.90
10459;DHT22;5277;48.722;8.736;2024-02-26T12:57:39;13.50;99.10
10459;DHT22;5277;48.722;8.736;2024-02-26T13:00:05;13.50;99.00
10459;DHT22;5277;48.722;8.736;2024-02-26T13:02:35;13.60;98.90
10459;DHT22;5277;48.722;8.736;2024-02-26T13:05:03;13.70;98.90
10459;DHT22;5277;48.722;8.736;2024-02-26T13:07:29;13.80;98.20
10459;DHT22;5277;48.722;8.736;2024-02-26T13:09:55;13.80;98.00
10459;DHT22;5277;48.722;8.736;2024-02-26T13:12:21;14.00;97.90
10459;DHT22;5277;48.722;8.736;2024-02-26T13:14:47;14.20;97.30
10459;DHT22;5277;48.722;8.736;2024-02-26T13:17:12;14.30;97.30
10459;DHT22;5277;48.722;8.736;2024-02-26T13:19:49;14.40;96.70
10459;DHT22;5277;48.722;8.736;2024-02-26T13:22:15;14.40;96.50
10459;DHT22;5277;48.722;8.736;2024-02-26T13:24:40;14.40;97.00
10459;DHT22;5277;48.722;8.736;2024-02-26T13:27:06;14.40;96.90
10459;DHT22;5277;48.722;8.736;2024-02-26T13:29:32;14.40;98.10
10459;DHT22;5277;48.722;8.736;2024-02-26T13:31:58;14.40;97.60
10459;DHT22;5277;48.722;8.736;2024-02-26T13:34:27;14.40;98.20
10459;DHT22;5277;48.722;8.736;2024-02-26T13:36:54;14.30;97.30
10459;DHT22;5277;48.722;8.736;2024-02-26T13:39:27;14.40;97.70
10459;DHT22;5277;48.722;8.736;2024-02-26T13:41:53;14.40;97.70
10459;DHT22;5277;48.722;8.736;2024-02-26T13:44:20;14.40;97.50
10459;DHT22;5277;48.722;8.736;2024-02-26T13:46:47;14.50;97.80
10459;DHT22;5277;48.722;8.736;2024-02-26T13:49:12;14.60;98.00
10459;DHT22;5277;48.722;8.736;2024-02-26T13:51:41;14.60;98.30
10459;DHT22;5277;48.722;8.736;2024-02-26T13:54:07;14.70;98.40
10459;DHT22;5277;48.722;8.736;2024-02-26T13:56:35;14.70;98.20
10459;DHT22;5277;48.722;8.736;2024-02-26T13:59:00;14.70;98.10
10459;DHT22;5277;48.722;8.736;2024-02-26T14:01:26;14.70;98.00
10459;DHT22;5277;48.722;8.736;2024-02-26T14:03:51;14.70;97.90
10459;DHT22;5277;48.722;8.736;2024-02-26T14:06:20;14.70;97.80
10459;DHT22;5277;48.722;8.736;2024-02-26T14:08:46;14.70;97.90
10459;DHT22;5277;48.722;8.736;2024-02-26T14:11:11;14.60;97.50
10459;DHT22;5277;48.722;8.736;2024-02-26T14:13:37;14.60;97.90
10459;DHT22;5277;48.722;8.736;2024-02-26T14:16:02;14.60;97.60
10459;DHT22;5277;48.722;8.736;2024-02-26T14:18:28;14.50;98.20
10459;DHT22;5277;48.722;8.736;2024-02-26T14:20:53;14.30;98.90
10459;DHT22;5277;48.722;8.736;2024-02-26T14:23:19;14.10;99.00
10459;DHT22;5277;48.722;8.736;2024-02-26T14:25:44;13.90;98.90
10459;DHT22;5277;48.722;8.736;2024-02-26T14:28:11;13.80;97.70
10459;DHT22;5277;48.722;8.736;2024-02-26T14:30:36;13.60;98.80
10459;DHT22;5277;48.722;8.736;2024-02-26T14:33:02;13.40;98.30
10459;DHT22;5277;48.722;8.736;2024-02-26T14:35:28;13.30;97.70
10459;DHT22;5277;48.722;8.736;2024-02-26T14:37:53;13.20;98.20
10459;DHT22;5277;48.722;8.736;2024-02-26T14:40:20;13.00;99.00
10459;DHT22;5277;48.722;8.736;2024-02-26T14:42:46;12.80;98.40
10459;DHT22;5277;48.722;8.736;2024-02-26T14:45:12;12.70;99.70
10459;DHT22;5277;48.722;8.736;2024-02-26T14:47:38;12.50;99.90
10459;DHT22;5277;48.722;8.736;2024-02-26T14:50:04;12.50;99.80
10459;DHT22;5277;48.722;8.736;2024-02-26T14:52:30;12.50;99.90
10459;DHT22;5277;48.722;8.736;2024-02-26T14:54:56;12.50;99.90
10459;DHT22;5277;48.722;8.736;2024-02-26T14:57:23;12.40;99.90
10459;DHT22;5277;48.722;8.736;2024-02-26T14:59:49;12.30;99.90
10459;DHT22;5277;48.722;8.736;2024-02-26T15:02:15;12.40;99.90
10459;DHT22;5277;48.722;8.736;2024-02-26T15:04:41;12.40;99.90
10459;DHT22;5277;48.722;8.736;2024-02-26T15:07:07;12.40;99.90
10459;DHT22;5277;48.722;8.736;2024-02-26T15:09:32;12.40;99.90
10459;DHT22;5277;48.722;8.736;2024-02-26T15:11:59;12.40;99.90
10459;DHT22;5277;48.722;8.736;2024-02-26T15:14:25;12.40;99.90
10459;DHT22;5277;48.722;8.736;2024-02-26T15:16:52;12.50;99.90
10459;DHT22;5277;48.722;8.736;2024-02-26T15:19:17;12.50;99.90
10459;DHT22;5277;48.722;8.736;2024-02-26T15:21:47;12.60;99.90
10459;DHT22;5277;48.722;8.736;2024-02-26T15:24:13;12.50;99.90
10459;DHT22;5277;48.722;8.736;2024-02-26T15:26:41;12.50;99.90
10459;DHT22;5277;48.722;8.736;2024-02-26T15:29:07;12.50;99.90
10459;DHT22;5277;48.722;8.736;2024-02-26T15:31:36;12.50;99.90
10459;DHT22;5277;48.722;8.736;2024-02-26T15:34:02;12.50;99.90
10459;DHT22;5277;48.722;8.736;2024-02-26T15:36:28;12.40;99.90
10459;DHT22;5277;48.722;8.736;2024-02-26T15:38:54;12.40;99.90
10459;DHT22;5277;48.722;8.736;2024-02-26T15:41:19;12.40;99.90
10459;DHT22;5277;48.722;8.736;2024-02-26T15:43:45;12.50;99.90
10459;DHT22;5277;48.722;8.736;2024-02-26T15:46:10;12.50;99.50
10459;DHT22;5277;48.722;8.736;2024-02-26T15:48:37;12.50;99.70
10459;DHT22;5277;48.722;8.736;2024-02-26T15:51:03;12.50;99.90
10459;DHT22;5277;48.722;8.736;2024-02-26T15:53:28;12.50;99.90
10459;DHT22;5277;48.722;8.736;2024-02-26T15:55:54;12.50;99.90
10459;DHT22;5277;48.722;8.736;2024-02-26T15:58:20;12.40;99.60
10459;DHT22;5277;48.722;8.736;2024-02-26T16:00:45;12.40;99.90
10459;DHT22;5277;48.722;8.736;2024-02-26T16:03:12;12.40;99.90